sensor_id;sensor_type;location;lat;lon;timestamp;P1;durP1;ratioP1;P2;durP2;ratioP2
23080;SDS011;11708;50.570;8.532;2022-12-07T00:01:07;31.27;;;13.60;;
23080;SDS011;11708;50.570;8.532;2022-12-07T00:03:38;28.88;;;13.65;;
23080;SDS011;11708;50.570;8.532;2022-12-07T00:06:05;29.17;;;14.85;;
23080;SDS011;11708;50.570;8.532;2022-12-07T00:08:31;33.00;;;15.45;;
23080;SDS011;11708;50.570;8.532;2022-12-07T00:11:11;27.17;;;14.02;;
23080;SDS011;11708;50.570;8.532;2022-12-07T00:13:39;32.45;;;14.95;;
23080;SDS011;11708;50.570;8.532;2022-12-07T00:16:09;29.92;;;13.68;;
23080;SDS011;11708;50.570;8.532;2022-12-07T00:18:39;32.08;;;15.05;;
23080;SDS011;11708;50.570;8.532;2022-12-07T00:21:09;36.72;;;15.52;;
23080;SDS011;11708;50.570;8.532;2022-12-07T00:23:43;31.67;;;15.43;;
23080;SDS011;11708;50.570;8.532;2022-12-07T00:26:20;31.35;;;14.88;;
23080;SDS011;11708;50.570;8.532;2022-12-07T00:28:48;28.90;;;14.15;;
23080;SDS011;11708;50.570;8.532;2022-12-07T00:31:16;32.47;;;15.75;;
23080;SDS011;11708;50.570;8.532;2022-12-07T00:33:46;28.15;;;14.35;;
23080;SDS011;11708;50.570;8.532;2022-12-07T00:36:14;36.20;;;15.32;;
23080;SDS011;11708;50.570;8.532;2022-12-07T00:38:41;32.03;;;14.93;;
23080;SDS011;11708;50.570;8.532;2022-12-07T00:41:11;36.33;;;15.32;;
23080;SDS011;11708;50.570;8.532;2022-12-07T00:43:39;33.83;;;14.65;;
23080;SDS011;11708;50.570;8.532;2022-12-07T00:46:06;28.50;;;14.10;;
23080;SDS011;11708;50.570;8.532;2022-12-07T00:48:32;32.45;;;15.48;;
23080;SDS011;11708;50.570;8.532;2022-12-07T00:50:58;29.10;;;14.88;;
23080;SDS011;11708;50.570;8.532;2022-12-07T00:53:24;32.60;;;14.80;;
23080;SDS011;11708;50.570;8.532;2022-12-07T00:55:49;34.42;;;15.15;;
23080;SDS011;11708;50.570;8.532;2022-12-07T00:58:15;31.92;;;14.82;;
23080;SDS011;11708;50.570;8.532;2022-12-07T01:00:44;32.78;;;15.40;;
23080;SDS011;11708;50.570;8.532;2022-12-07T01:03:13;29.05;;;14.50;;
23080;SDS011;11708;50.570;8.532;2022-12-07T01:05:40;30.50;;;15.10;;
23080;SDS011;11708;50.570;8.532;2022-12-07T01:08:14;33.65;;;14.98;;
23080;SDS011;11708;50.570;8.532;2022-12-07T01:10:40;31.35;;;16.38;;
23080;SDS011;11708;50.570;8.532;2022-12-07T01:13:05;32.75;;;14.93;;
23080;SDS011;11708;50.570;8.532;2022-12-07T01:15:31;30.60;;;14.52;;
23080;SDS011;11708;50.570;8.532;2022-12-07T01:17:56;34.38;;;14.85;;
23080;SDS011;11708;50.570;8.532;2022-12-07T01:20:22;28.48;;;14.50;;
23080;SDS011;11708;50.570;8.532;2022-12-07T01:22:48;29.35;;;15.07;;
23080;SDS011;11708;50.570;8.532;2022-12-07T01:25:13;31.30;;;14.65;;
23080;SDS011;11708;50.570;8.532;2022-12-07T01:27:39;29.95;;;15.02;;
23080;SDS011;11708;50.570;8.532;2022-12-07T01:30:06;30.10;;;14.25;;
23080;SDS011;11708;50.570;8.532;2022-12-07T01:32:32;28.90;;;13.75;;
23080;SDS011;11708;50.570;8.532;2022-12-07T01:34:58;28.85;;;13.18;;
23080;SDS011;11708;50.570;8.532;2022-12-07T01:37:24;27.15;;;12.68;;
23080;SDS011;11708;50.570;8.532;2022-12-07T01:39:58;29.15;;;12.52;;
23080;SDS011;11708;50.570;8.532;2022-12-07T01:42:24;25.92;;;12.57;;
23080;SDS011;11708;50.570;8.532;2022-12-07T01:47:46;23.35;;;11.70;;
23080;SDS011;11708;50.570;8.532;2022-12-07T01:50:18;21.52;;;10.82;;
23080;SDS011;11708;50.570;8.532;2022-12-07T01:52:48;20.15;;;10.70;;
23080;SDS011;11708;50.570;8.532;2022-12-07T01:55:15;22.52;;;11.35;;
23080;SDS011;11708;50.570;8.532;2022-12-07T01:57:45;23.65;;;10.90;;
23080;SDS011;11708;50.570;8.532;2022-12-07T02:00:13;22.58;;;10.85;;
23080;SDS011;11708;50.570;8.532;2022-12-07T02:05:22;19.65;;;10.20;;
23080;SDS011;11708;50.570;8.532;2022-12-07T02:07:51;21.48;;;11.18;;
23080;SDS011;11708;50.570;8.532;2022-12-07T02:12:49;22.20;;;10.95;;
23080;SDS011;11708;50.570;8.532;2022-12-07T02:21:15;21.75;;;10.13;;
23080;SDS011;11708;50.570;8.532;2022-12-07T02:29:50;19.05;;;9.27;;
23080;SDS011;11708;50.570;8.532;2022-12-07T02:33:12;20.48;;;9.57;;
23080;SDS011;11708;50.570;8.532;2022-12-07T02:38:25;18.65;;;9.32;;
23080;SDS011;11708;50.570;8.532;2022-12-07T02:43:42;17.92;;;9.57;;
23080;SDS011;11708;50.570;8.532;2022-12-07T02:46:13;17.95;;;9.68;;
23080;SDS011;11708;50.570;8.532;2022-12-07T02:48:42;22.10;;;10.23;;
23080;SDS011;11708;50.570;8.532;2022-12-07T02:51:08;22.80;;;9.52;;
23080;SDS011;11708;50.570;8.532;2022-12-07T02:53:38;18.70;;;9.73;;
23080;SDS011;11708;50.570;8.532;2022-12-07T02:56:19;18.42;;;9.45;;
23080;SDS011;11708;50.570;8.532;2022-12-07T02:59:02;20.27;;;9.80;;
23080;SDS011;11708;50.570;8.532;2022-12-07T03:16:17;18.45;;;9.63;;
23080;SDS011;11708;50.570;8.532;2022-12-07T03:19:08;18.75;;;9.75;;
23080;SDS011;11708;50.570;8.532;2022-12-07T03:21:47;20.35;;;10.50;;
23080;SDS011;11708;50.570;8.532;2022-12-07T03:24:19;23.50;;;10.70;;
23080;SDS011;11708;50.570;8.532;2022-12-07T03:26:48;18.80;;;10.90;;
23080;SDS011;11708;50.570;8.532;2022-12-07T03:29:19;18.33;;;9.55;;
23080;SDS011;11708;50.570;8.532;2022-12-07T03:32:12;18.48;;;10.40;;
23080;SDS011;11708;50.570;8.532;2022-12-07T03:34:46;19.00;;;9.82;;
23080;SDS011;11708;50.570;8.532;2022-12-07T03:40:10;18.08;;;10.05;;
23080;SDS011;11708;50.570;8.532;2022-12-07T03:42:42;19.65;;;10.15;;
23080;SDS011;11708;50.570;8.532;2022-12-07T03:45:08;17.52;;;9.68;;
23080;SDS011;11708;50.570;8.532;2022-12-07T03:47:37;19.50;;;9.50;;
23080;SDS011;11708;50.570;8.532;2022-12-07T03:53:03;22.42;;;10.38;;
23080;SDS011;11708;50.570;8.532;2022-12-07T03:55:35;18.90;;;9.70;;
23080;SDS011;11708;50.570;8.532;2022-12-07T03:58:06;19.08;;;9.10;;
23080;SDS011;11708;50.570;8.532;2022-12-07T04:00:38;18.48;;;9.75;;
23080;SDS011;11708;50.570;8.532;2022-12-07T04:03:06;17.70;;;9.60;;
23080;SDS011;11708;50.570;8.532;2022-12-07T04:05:32;17.27;;;9.75;;
23080;SDS011;11708;50.570;8.532;2022-12-07T04:07:57;18.88;;;9.60;;
23080;SDS011;11708;50.570;8.532;2022-12-07T04:10:23;18.55;;;9.85;;
23080;SDS011;11708;50.570;8.532;2022-12-07T04:12:48;15.73;;;8.45;;
23080;SDS011;11708;50.570;8.532;2022-12-07T04:15:14;17.45;;;9.02;;
23080;SDS011;11708;50.570;8.532;2022-12-07T04:17:40;17.55;;;8.80;;
23080;SDS011;11708;50.570;8.532;2022-12-07T04:20:05;17.42;;;9.38;;
23080;SDS011;11708;50.570;8.532;2022-12-07T04:22:32;14.35;;;8.32;;
23080;SDS011;11708;50.570;8.532;2022-12-07T04:24:57;16.83;;;9.70;;
23080;SDS011;11708;50.570;8.532;2022-12-07T04:27:23;19.05;;;10.23;;
23080;SDS011;11708;50.570;8.532;2022-12-07T04:29:48;18.33;;;8.77;;
23080;SDS011;11708;50.570;8.532;2022-12-07T04:32:18;18.88;;;9.77;;
23080;SDS011;11708;50.570;8.532;2022-12-07T04:34:43;18.20;;;8.80;;
23080;SDS011;11708;50.570;8.532;2022-12-07T04:37:09;18.48;;;10.10;;
23080;SDS011;11708;50.570;8.532;2022-12-07T04:39:35;20.70;;;10.05;;
23080;SDS011;11708;50.570;8.532;2022-12-07T04:42:01;19.02;;;9.43;;
23080;SDS011;11708;50.570;8.532;2022-12-07T04:44:28;20.27;;;10.70;;
23080;SDS011;11708;50.570;8.532;2022-12-07T04:46:54;18.17;;;9.48;;
23080;SDS011;11708;50.570;8.532;2022-12-07T04:49:20;19.27;;;10.00;;
23080;SDS011;11708;50.570;8.532;2022-12-07T04:51:46;18.40;;;10.02;;
23080;SDS011;11708;50.570;8.532;2022-12-07T04:54:12;18.05;;;9.75;;
23080;SDS011;11708;50.570;8.532;2022-12-07T04:56:39;19.02;;;10.25;;
23080;SDS011;11708;50.570;8.532;2022-12-07T04:59:04;19.90;;;10.27;;
23080;SDS011;11708;50.570;8.532;2022-12-07T05:01:30;19.23;;;10.20;;
23080;SDS011;11708;50.570;8.532;2022-12-07T05:03:57;17.33;;;10.25;;
23080;SDS011;11708;50.570;8.532;2022-12-07T05:06:23;17.67;;;10.13;;
23080;SDS011;11708;50.570;8.532;2022-12-07T05:08:57;19.60;;;9.77;;
23080;SDS011;11708;50.570;8.532;2022-12-07T05:11:23;19.38;;;9.32;;
23080;SDS011;11708;50.570;8.532;2022-12-07T05:14:14;22.08;;;10.13;;
23080;SDS011;11708;50.570;8.532;2022-12-07T05:16:45;19.63;;;9.77;;
23080;SDS011;11708;50.570;8.532;2022-12-07T05:19:16;18.30;;;9.70;;
23080;SDS011;11708;50.570;8.532;2022-12-07T05:21:42;16.42;;;9.52;;
23080;SDS011;11708;50.570;8.532;2022-12-07T05:24:09;18.17;;;9.75;;
23080;SDS011;11708;50.570;8.532;2022-12-07T05:26:35;21.92;;;10.90;;
23080;SDS011;11708;50.570;8.532;2022-12-07T05:29:01;21.98;;;10.25;;
23080;SDS011;11708;50.570;8.532;2022-12-07T05:31:28;19.88;;;9.65;;
23080;SDS011;11708;50.570;8.532;2022-12-07T05:33:53;22.95;;;10.63;;
23080;SDS011;11708;50.570;8.532;2022-12-07T05:36:24;23.00;;;10.50;;
23080;SDS011;11708;50.570;8.532;2022-12-07T05:38:49;17.45;;;9.65;;
23080;SDS011;11708;50.570;8.532;2022-12-07T05:41:18;19.55;;;10.50;;
23080;SDS011;11708;50.570;8.532;2022-12-07T05:44:03;23.70;;;11.07;;
23080;SDS011;11708;50.570;8.532;2022-12-07T05:46:30;19.00;;;10.68;;
23080;SDS011;11708;50.570;8.532;2022-12-07T05:48:56;20.80;;;9.23;;
23080;SDS011;11708;50.570;8.532;2022-12-07T05:51:21;19.80;;;11.00;;
23080;SDS011;11708;50.570;8.532;2022-12-07T05:53:47;24.17;;;11.35;;
23080;SDS011;11708;50.570;8.532;2022-12-07T05:56:12;21.13;;;10.82;;
23080;SDS011;11708;50.570;8.532;2022-12-07T05:58:38;17.20;;;9.88;;
23080;SDS011;11708;50.570;8.532;2022-12-07T06:01:23;20.48;;;10.68;;
23080;SDS011;11708;50.570;8.532;2022-12-07T06:03:49;21.42;;;9.90;;
23080;SDS011;11708;50.570;8.532;2022-12-07T06:06:15;22.02;;;11.13;;
23080;SDS011;11708;50.570;8.532;2022-12-07T06:08:40;20.73;;;10.40;;
23080;SDS011;11708;50.570;8.532;2022-12-07T06:11:06;20.00;;;10.60;;
23080;SDS011;11708;50.570;8.532;2022-12-07T06:13:50;23.35;;;11.27;;
23080;SDS011;11708;50.570;8.532;2022-12-07T06:16:15;20.45;;;11.30;;
23080;SDS011;11708;50.570;8.532;2022-12-07T06:18:41;19.50;;;10.98;;
23080;SDS011;11708;50.570;8.532;2022-12-07T06:21:06;20.05;;;10.98;;
23080;SDS011;11708;50.570;8.532;2022-12-07T06:23:32;19.88;;;11.02;;
23080;SDS011;11708;50.570;8.532;2022-12-07T06:25:58;20.73;;;10.60;;
23080;SDS011;11708;50.570;8.532;2022-12-07T06:28:23;19.90;;;10.52;;
23080;SDS011;11708;50.570;8.532;2022-12-07T06:30:56;21.13;;;10.50;;
23080;SDS011;11708;50.570;8.532;2022-12-07T06:33:38;19.15;;;9.50;;
23080;SDS011;11708;50.570;8.532;2022-12-07T06:36:04;19.45;;;11.15;;
23080;SDS011;11708;50.570;8.532;2022-12-07T06:38:30;22.38;;;11.23;;
23080;SDS011;11708;50.570;8.532;2022-12-07T06:40:55;23.00;;;11.43;;
23080;SDS011;11708;50.570;8.532;2022-12-07T06:43:21;22.50;;;10.93;;
23080;SDS011;11708;50.570;8.532;2022-12-07T06:45:46;19.83;;;9.68;;
23080;SDS011;11708;50.570;8.532;2022-12-07T06:48:12;19.25;;;9.45;;
23080;SDS011;11708;50.570;8.532;2022-12-07T06:50:37;20.80;;;10.82;;
23080;SDS011;11708;50.570;8.532;2022-12-07T06:53:03;25.23;;;11.35;;
23080;SDS011;11708;50.570;8.532;2022-12-07T06:55:28;21.52;;;11.10;;
23080;SDS011;11708;50.570;8.532;2022-12-07T06:57:54;24.05;;;11.82;;
23080;SDS011;11708;50.570;8.532;2022-12-07T07:00:20;25.75;;;11.07;;
23080;SDS011;11708;50.570;8.532;2022-12-07T07:02:48;28.90;;;11.88;;
23080;SDS011;11708;50.570;8.532;2022-12-07T07:05:13;24.48;;;11.98;;
23080;SDS011;11708;50.570;8.532;2022-12-07T07:07:39;26.05;;;11.88;;
23080;SDS011;11708;50.570;8.532;2022-12-07T07:10:05;24.13;;;11.57;;
23080;SDS011;11708;50.570;8.532;2022-12-07T07:12:31;24.80;;;11.70;;
23080;SDS011;11708;50.570;8.532;2022-12-07T07:14:56;23.92;;;11.15;;
23080;SDS011;11708;50.570;8.532;2022-12-07T07:17:22;21.02;;;11.48;;
23080;SDS011;11708;50.570;8.532;2022-12-07T07:19:47;22.38;;;11.55;;
23080;SDS011;11708;50.570;8.532;2022-12-07T07:22:16;25.75;;;12.15;;
23080;SDS011;11708;50.570;8.532;2022-12-07T07:24:41;23.58;;;12.13;;
23080;SDS011;11708;50.570;8.532;2022-12-07T07:27:07;26.88;;;12.70;;
23080;SDS011;11708;50.570;8.532;2022-12-07T07:29:33;22.73;;;11.40;;
23080;SDS011;11708;50.570;8.532;2022-12-07T07:31:59;28.20;;;12.32;;
23080;SDS011;11708;50.570;8.532;2022-12-07T07:34:25;26.88;;;12.18;;
23080;SDS011;11708;50.570;8.532;2022-12-07T07:36:50;23.92;;;11.98;;
23080;SDS011;11708;50.570;8.532;2022-12-07T07:39:16;23.42;;;11.93;;
23080;SDS011;11708;50.570;8.532;2022-12-07T07:41:41;23.05;;;12.02;;
23080;SDS011;11708;50.570;8.532;2022-12-07T07:44:07;25.55;;;12.38;;
23080;SDS011;11708;50.570;8.532;2022-12-07T07:46:32;24.33;;;12.48;;
23080;SDS011;11708;50.570;8.532;2022-12-07T07:48:58;24.45;;;12.05;;
23080;SDS011;11708;50.570;8.532;2022-12-07T07:51:27;25.40;;;12.13;;
23080;SDS011;11708;50.570;8.532;2022-12-07T07:53:52;27.33;;;12.38;;
23080;SDS011;11708;50.570;8.532;2022-12-07T07:56:18;27.88;;;12.63;;
23080;SDS011;11708;50.570;8.532;2022-12-07T07:58:44;23.63;;;12.05;;
23080;SDS011;11708;50.570;8.532;2022-12-07T08:01:09;25.27;;;12.65;;
23080;SDS011;11708;50.570;8.532;2022-12-07T08:03:36;26.08;;;12.75;;
23080;SDS011;11708;50.570;8.532;2022-12-07T08:06:03;23.08;;;12.50;;
23080;SDS011;11708;50.570;8.532;2022-12-07T08:08:29;25.92;;;12.82;;
23080;SDS011;11708;50.570;8.532;2022-12-07T08:10:58;28.35;;;13.77;;
23080;SDS011;11708;50.570;8.532;2022-12-07T08:13:26;23.13;;;12.55;;
23080;SDS011;11708;50.570;8.532;2022-12-07T08:15:51;23.30;;;11.73;;
23080;SDS011;11708;50.570;8.532;2022-12-07T08:18:17;22.45;;;12.43;;
23080;SDS011;11708;50.570;8.532;2022-12-07T08:20:43;25.77;;;13.05;;
23080;SDS011;11708;50.570;8.532;2022-12-07T08:23:09;25.80;;;14.05;;
23080;SDS011;11708;50.570;8.532;2022-12-07T08:25:35;27.10;;;13.27;;
23080;SDS011;11708;50.570;8.532;2022-12-07T08:28:01;24.23;;;12.90;;
23080;SDS011;11708;50.570;8.532;2022-12-07T08:30:27;23.90;;;12.20;;
23080;SDS011;11708;50.570;8.532;2022-12-07T08:32:54;27.90;;;12.70;;
23080;SDS011;11708;50.570;8.532;2022-12-07T08:35:22;22.52;;;11.98;;
23080;SDS011;11708;50.570;8.532;2022-12-07T08:37:48;33.03;;;12.77;;
23080;SDS011;11708;50.570;8.532;2022-12-07T08:40:14;21.65;;;12.10;;
23080;SDS011;11708;50.570;8.532;2022-12-07T08:42:50;24.52;;;13.40;;
23080;SDS011;11708;50.570;8.532;2022-12-07T08:45:17;23.85;;;12.38;;
23080;SDS011;11708;50.570;8.532;2022-12-07T08:47:52;27.10;;;12.85;;
23080;SDS011;11708;50.570;8.532;2022-12-07T08:50:22;23.30;;;11.90;;
23080;SDS011;11708;50.570;8.532;2022-12-07T08:52:50;31.77;;;13.07;;
23080;SDS011;11708;50.570;8.532;2022-12-07T08:55:18;26.52;;;13.82;;
23080;SDS011;11708;50.570;8.532;2022-12-07T08:57:44;28.92;;;12.70;;
23080;SDS011;11708;50.570;8.532;2022-12-07T09:00:10;22.27;;;11.35;;
23080;SDS011;11708;50.570;8.532;2022-12-07T09:02:36;23.35;;;11.32;;
23080;SDS011;11708;50.570;8.532;2022-12-07T09:05:02;20.45;;;11.18;;
23080;SDS011;11708;50.570;8.532;2022-12-07T09:07:29;21.63;;;10.10;;
23080;SDS011;11708;50.570;8.532;2022-12-07T09:09:57;20.35;;;11.02;;
23080;SDS011;11708;50.570;8.532;2022-12-07T09:12:22;20.88;;;10.50;;
23080;SDS011;11708;50.570;8.532;2022-12-07T09:14:48;19.65;;;9.90;;
23080;SDS011;11708;50.570;8.532;2022-12-07T09:17:14;19.65;;;9.82;;
23080;SDS011;11708;50.570;8.532;2022-12-07T09:19:39;17.42;;;9.52;;
23080;SDS011;11708;50.570;8.532;2022-12-07T09:22:07;18.60;;;9.75;;
23080;SDS011;11708;50.570;8.532;2022-12-07T09:24:32;19.95;;;10.05;;
23080;SDS011;11708;50.570;8.532;2022-12-07T09:26:58;17.90;;;9.93;;
23080;SDS011;11708;50.570;8.532;2022-12-07T09:29:24;19.88;;;9.60;;
23080;SDS011;11708;50.570;8.532;2022-12-07T09:31:50;19.75;;;9.20;;
23080;SDS011;11708;50.570;8.532;2022-12-07T09:34:16;19.88;;;9.32;;
23080;SDS011;11708;50.570;8.532;2022-12-07T09:36:42;17.17;;;9.13;;
23080;SDS011;11708;50.570;8.532;2022-12-07T09:39:08;14.90;;;8.35;;
23080;SDS011;11708;50.570;8.532;2022-12-07T09:41:33;18.02;;;9.32;;
23080;SDS011;11708;50.570;8.532;2022-12-07T09:44:05;17.38;;;7.85;;
23080;SDS011;11708;50.570;8.532;2022-12-07T09:46:38;13.63;;;8.43;;
23080;SDS011;11708;50.570;8.532;2022-12-07T09:49:08;14.20;;;8.25;;
23080;SDS011;11708;50.570;8.532;2022-12-07T09:51:47;13.27;;;8.18;;
23080;SDS011;11708;50.570;8.532;2022-12-07T09:54:27;13.23;;;7.90;;
23080;SDS011;11708;50.570;8.532;2022-12-07T09:56:53;13.15;;;7.05;;
23080;SDS011;11708;50.570;8.532;2022-12-07T09:59:24;12.57;;;7.47;;
23080;SDS011;11708;50.570;8.532;2022-12-07T10:01:50;13.90;;;6.97;;
23080;SDS011;11708;50.570;8.532;2022-12-07T10:04:17;13.77;;;6.65;;
23080;SDS011;11708;50.570;8.532;2022-12-07T10:06:49;12.63;;;6.68;;
23080;SDS011;11708;50.570;8.532;2022-12-07T10:09:16;11.45;;;6.55;;
23080;SDS011;11708;50.570;8.532;2022-12-07T10:12:03;13.23;;;7.45;;
23080;SDS011;11708;50.570;8.532;2022-12-07T10:14:55;11.88;;;7.07;;
23080;SDS011;11708;50.570;8.532;2022-12-07T10:17:37;11.63;;;5.97;;
23080;SDS011;11708;50.570;8.532;2022-12-07T10:22:37;16.10;;;7.80;;
23080;SDS011;11708;50.570;8.532;2022-12-07T10:25:17;13.60;;;7.15;;
23080;SDS011;11708;50.570;8.532;2022-12-07T10:33:50;12.35;;;5.80;;
23080;SDS011;11708;50.570;8.532;2022-12-07T10:36:37;10.85;;;6.28;;
23080;SDS011;11708;50.570;8.532;2022-12-07T10:41:52;11.73;;;7.05;;
23080;SDS011;11708;50.570;8.532;2022-12-07T10:44:23;15.35;;;7.43;;
23080;SDS011;11708;50.570;8.532;2022-12-07T10:46:56;15.05;;;6.50;;
23080;SDS011;11708;50.570;8.532;2022-12-07T10:49:46;13.18;;;7.13;;
23080;SDS011;11708;50.570;8.532;2022-12-07T10:55:21;11.77;;;6.50;;
23080;SDS011;11708;50.570;8.532;2022-12-07T11:06:20;9.27;;;4.85;;
23080;SDS011;11708;50.570;8.532;2022-12-07T11:17:03;8.98;;;5.28;;
23080;SDS011;11708;50.570;8.532;2022-12-07T11:25:59;8.07;;;5.50;;
23080;SDS011;11708;50.570;8.532;2022-12-07T11:36:40;5.93;;;3.90;;
23080;SDS011;11708;50.570;8.532;2022-12-07T11:41:47;7.30;;;3.83;;
23080;SDS011;11708;50.570;8.532;2022-12-07T11:46:58;5.90;;;2.80;;
23080;SDS011;11708;50.570;8.532;2022-12-07T11:49:40;6.25;;;3.25;;
23080;SDS011;11708;50.570;8.532;2022-12-07T11:52:20;4.38;;;2.85;;
23080;SDS011;11708;50.570;8.532;2022-12-07T11:54:52;4.25;;;2.80;;
23080;SDS011;11708;50.570;8.532;2022-12-07T12:00:17;5.35;;;2.58;;
23080;SDS011;11708;50.570;8.532;2022-12-07T12:02:49;4.50;;;2.85;;
23080;SDS011;11708;50.570;8.532;2022-12-07T12:05:26;4.93;;;2.72;;
23080;SDS011;11708;50.570;8.532;2022-12-07T12:07:59;9.70;;;4.47;;
23080;SDS011;11708;50.570;8.532;2022-12-07T12:19:02;4.40;;;2.85;;
23080;SDS011;11708;50.570;8.532;2022-12-07T12:21:43;6.53;;;2.80;;
23080;SDS011;11708;50.570;8.532;2022-12-07T12:24:15;7.90;;;2.85;;
23080;SDS011;11708;50.570;8.532;2022-12-07T12:26:51;6.78;;;2.97;;
23080;SDS011;11708;50.570;8.532;2022-12-07T12:29:23;8.43;;;2.97;;
23080;SDS011;11708;50.570;8.532;2022-12-07T12:32:05;5.88;;;2.90;;
23080;SDS011;11708;50.570;8.532;2022-12-07T12:37:02;5.63;;;2.88;;
23080;SDS011;11708;50.570;8.532;2022-12-07T12:42:51;6.80;;;3.03;;
23080;SDS011;11708;50.570;8.532;2022-12-07T12:45:25;6.32;;;3.10;;
23080;SDS011;11708;50.570;8.532;2022-12-07T12:47:54;6.75;;;3.10;;
23080;SDS011;11708;50.570;8.532;2022-12-07T12:50:42;8.07;;;3.13;;
23080;SDS011;11708;50.570;8.532;2022-12-07T12:53:26;8.27;;;2.67;;
23080;SDS011;11708;50.570;8.532;2022-12-07T12:58:44;6.85;;;3.25;;
23080;SDS011;11708;50.570;8.532;2022-12-07T13:04:12;6.47;;;3.33;;
23080;SDS011;11708;50.570;8.532;2022-12-07T13:06:46;7.35;;;2.90;;
23080;SDS011;11708;50.570;8.532;2022-12-07T13:09:45;7.03;;;3.30;;
23080;SDS011;11708;50.570;8.532;2022-12-07T13:12:14;5.43;;;3.15;;
23080;SDS011;11708;50.570;8.532;2022-12-07T13:14:54;7.57;;;3.33;;
23080;SDS011;11708;50.570;8.532;2022-12-07T13:19:57;5.57;;;2.78;;
23080;SDS011;11708;50.570;8.532;2022-12-07T13:24:57;6.53;;;2.72;;
23080;SDS011;11708;50.570;8.532;2022-12-07T13:27:32;6.70;;;2.13;;
23080;SDS011;11708;50.570;8.532;2022-12-07T13:30:02;4.30;;;2.88;;
23080;SDS011;11708;50.570;8.532;2022-12-07T13:32:42;3.95;;;2.58;;
23080;SDS011;11708;50.570;8.532;2022-12-07T13:35:27;4.65;;;2.40;;
23080;SDS011;11708;50.570;8.532;2022-12-07T13:37:54;6.05;;;2.15;;
23080;SDS011;11708;50.570;8.532;2022-12-07T13:40:21;4.57;;;2.35;;
23080;SDS011;11708;50.570;8.532;2022-12-07T13:42:47;3.88;;;2.50;;
23080;SDS011;11708;50.570;8.532;2022-12-07T13:45:23;2.90;;;2.20;;
23080;SDS011;11708;50.570;8.532;2022-12-07T13:48:31;3.40;;;2.22;;
23080;SDS011;11708;50.570;8.532;2022-12-07T13:51:14;3.05;;;2.20;;
23080;SDS011;11708;50.570;8.532;2022-12-07T13:54:06;2.45;;;1.77;;
23080;SDS011;11708;50.570;8.532;2022-12-07T13:56:37;5.97;;;2.05;;
23080;SDS011;11708;50.570;8.532;2022-12-07T13:59:17;3.47;;;2.08;;
23080;SDS011;11708;50.570;8.532;2022-12-07T14:01:46;3.70;;;2.47;;
23080;SDS011;11708;50.570;8.532;2022-12-07T14:06:59;4.13;;;2.30;;
23080;SDS011;11708;50.570;8.532;2022-12-07T14:09:27;5.90;;;3.10;;
23080;SDS011;11708;50.570;8.532;2022-12-07T14:11:55;4.80;;;2.80;;
23080;SDS011;11708;50.570;8.532;2022-12-07T14:14:22;5.32;;;3.15;;
23080;SDS011;11708;50.570;8.532;2022-12-07T14:25:20;4.18;;;2.90;;
23080;SDS011;11708;50.570;8.532;2022-12-07T14:27:49;6.65;;;3.20;;
23080;SDS011;11708;50.570;8.532;2022-12-07T14:30:20;5.97;;;3.60;;
23080;SDS011;11708;50.570;8.532;2022-12-07T14:32:46;5.43;;;3.00;;
23080;SDS011;11708;50.570;8.532;2022-12-07T14:35:17;7.97;;;3.42;;
23080;SDS011;11708;50.570;8.532;2022-12-07T14:37:44;7.57;;;3.55;;
23080;SDS011;11708;50.570;8.532;2022-12-07T14:40:12;8.90;;;4.20;;
23080;SDS011;11708;50.570;8.532;2022-12-07T14:42:44;11.63;;;4.53;;
23080;SDS011;11708;50.570;8.532;2022-12-07T14:45:16;13.13;;;6.03;;
23080;SDS011;11708;50.570;8.532;2022-12-07T14:47:46;12.70;;;5.40;;
23080;SDS011;11708;50.570;8.532;2022-12-07T14:50:16;10.93;;;5.90;;
23080;SDS011;11708;50.570;8.532;2022-12-07T14:52:48;11.60;;;5.00;;
23080;SDS011;11708;50.570;8.532;2022-12-07T14:55:30;9.88;;;5.60;;
23080;SDS011;11708;50.570;8.532;2022-12-07T14:57:56;13.32;;;4.57;;
23080;SDS011;11708;50.570;8.532;2022-12-07T15:00:24;7.53;;;3.80;;
23080;SDS011;11708;50.570;8.532;2022-12-07T15:02:51;6.10;;;2.80;;
23080;SDS011;11708;50.570;8.532;2022-12-07T15:05:17;5.18;;;2.45;;
23080;SDS011;11708;50.570;8.532;2022-12-07T15:07:43;6.03;;;2.67;;
23080;SDS011;11708;50.570;8.532;2022-12-07T15:10:26;4.70;;;2.85;;
23080;SDS011;11708;50.570;8.532;2022-12-07T15:12:56;6.18;;;2.97;;
23080;SDS011;11708;50.570;8.532;2022-12-07T15:15:46;5.28;;;2.42;;
23080;SDS011;11708;50.570;8.532;2022-12-07T15:18:13;4.85;;;2.80;;
23080;SDS011;11708;50.570;8.532;2022-12-07T15:20:42;4.80;;;2.40;;
23080;SDS011;11708;50.570;8.532;2022-12-07T15:23:09;2.88;;;1.95;;
23080;SDS011;11708;50.570;8.532;2022-12-07T15:25:35;5.10;;;2.03;;
23080;SDS011;11708;50.570;8.532;2022-12-07T15:28:01;5.80;;;2.17;;
23080;SDS011;11708;50.570;8.532;2022-12-07T15:30:27;3.60;;;1.92;;
23080;SDS011;11708;50.570;8.532;2022-12-07T15:32:52;5.15;;;2.25;;
23080;SDS011;11708;50.570;8.532;2022-12-07T15:35:18;3.13;;;1.85;;
23080;SDS011;11708;50.570;8.532;2022-12-07T15:37:44;4.30;;;2.15;;
23080;SDS011;11708;50.570;8.532;2022-12-07T15:40:10;3.25;;;1.90;;
23080;SDS011;11708;50.570;8.532;2022-12-07T15:42:38;5.53;;;2.17;;
23080;SDS011;11708;50.570;8.532;2022-12-07T15:45:04;3.92;;;2.08;;
23080;SDS011;11708;50.570;8.532;2022-12-07T15:47:33;6.57;;;2.25;;
23080;SDS011;11708;50.570;8.532;2022-12-07T15:50:01;3.67;;;1.90;;
23080;SDS011;11708;50.570;8.532;2022-12-07T15:52:31;6.07;;;2.08;;
23080;SDS011;11708;50.570;8.532;2022-12-07T15:55:00;6.13;;;2.08;;
23080;SDS011;11708;50.570;8.532;2022-12-07T15:57:28;5.22;;;2.30;;
23080;SDS011;11708;50.570;8.532;2022-12-07T15:59:57;5.75;;;2.53;;
23080;SDS011;11708;50.570;8.532;2022-12-07T16:02:23;10.32;;;2.75;;
23080;SDS011;11708;50.570;8.532;2022-12-07T16:04:49;3.00;;;2.20;;
23080;SDS011;11708;50.570;8.532;2022-12-07T16:07:16;3.08;;;2.22;;
23080;SDS011;11708;50.570;8.532;2022-12-07T16:09:42;6.75;;;2.55;;
23080;SDS011;11708;50.570;8.532;2022-12-07T16:12:09;6.97;;;2.38;;
23080;SDS011;11708;50.570;8.532;2022-12-07T16:14:35;4.55;;;2.20;;
23080;SDS011;11708;50.570;8.532;2022-12-07T16:17:02;3.28;;;2.40;;
23080;SDS011;11708;50.570;8.532;2022-12-07T16:19:29;6.93;;;2.55;;
23080;SDS011;11708;50.570;8.532;2022-12-07T16:21:55;5.82;;;3.03;;
23080;SDS011;11708;50.570;8.532;2022-12-07T16:24:21;3.58;;;2.70;;
23080;SDS011;11708;50.570;8.532;2022-12-07T16:26:47;4.45;;;2.67;;
23080;SDS011;11708;50.570;8.532;2022-12-07T16:29:14;6.47;;;3.30;;
23080;SDS011;11708;50.570;8.532;2022-12-07T16:31:40;5.05;;;2.88;;
23080;SDS011;11708;50.570;8.532;2022-12-07T16:34:06;5.38;;;2.80;;
23080;SDS011;11708;50.570;8.532;2022-12-07T16:36:32;5.35;;;3.40;;
23080;SDS011;11708;50.570;8.532;2022-12-07T16:39:01;6.50;;;3.30;;
23080;SDS011;11708;50.570;8.532;2022-12-07T16:41:27;7.22;;;3.70;;
23080;SDS011;11708;50.570;8.532;2022-12-07T16:43:53;5.95;;;3.78;;
23080;SDS011;11708;50.570;8.532;2022-12-07T16:46:19;6.22;;;3.70;;
23080;SDS011;11708;50.570;8.532;2022-12-07T16:48:44;5.47;;;3.60;;
23080;SDS011;11708;50.570;8.532;2022-12-07T16:51:11;5.20;;;3.80;;
23080;SDS011;11708;50.570;8.532;2022-12-07T16:53:38;4.72;;;3.28;;
23080;SDS011;11708;50.570;8.532;2022-12-07T16:56:09;7.00;;;4.03;;
23080;SDS011;11708;50.570;8.532;2022-12-07T16:58:36;6.45;;;3.10;;
23080;SDS011;11708;50.570;8.532;2022-12-07T17:01:09;8.00;;;4.60;;
23080;SDS011;11708;50.570;8.532;2022-12-07T17:03:46;8.48;;;4.72;;